WZZ1144 EPGD-EHEH
Flight info
| Callsign | WZZ1144 |
|---|---|
| Flight time | N/A |
| Altitude | 36000 |
| Route | DEXIR3H DEXIR T671 AGODU L733 BODLA DCT RADEL DCT HLZ DCT PIROT T851 HMM DCT PISAP T883 ROTEK ROTEK3E |
| Aircraft | A320/M-SDE3FGHIRWY/LB1 |
Departure
| Time | 2026-05-01 10:33 |
|---|---|
| Airport | Gdańsk Lech Wałęsa Airport (EPGD) |
Arrival
| Time | N/A |
|---|---|
| Airport | Eindhoven Airport (EHEH) |
| Time | Latitude | Longitude | Altitude | Speed | Heading |
|---|---|---|---|---|---|
| 2026-05-01 10:30 | 54.37595 | 18.47989 | 464 ft | 23 kts | 112° |
| 2026-05-01 10:30 | 54.37468 | 18.48503 | 468 ft | 24 kts | 112° |
| 2026-05-01 10:31 | 54.37339 | 18.49032 | 473 ft | 25 kts | 113° |
| 2026-05-01 10:31 | 54.37165 | 18.49158 | 475 ft | 19 kts | 248° |
| 2026-05-01 10:32 | 54.37175 | 18.48976 | 471 ft | 0 kts | 291° |
| 2026-05-01 10:32 | 54.37194 | 18.48898 | 475 ft | 30 kts | 292° |
| 2026-05-01 10:32 | 54.37712 | 18.46806 | 451 ft | 148 kts | 293° |
| 2026-05-01 10:33 | 54.38584 | 18.43236 | 1480 ft | 162 kts | 294° |
| 2026-05-01 10:33 | 54.39484 | 18.39612 | 2634 ft | 180 kts | 294° |
| 2026-05-01 10:34 | 54.40004 | 18.37507 | 2930 ft | 202 kts | 294° |
| 2026-05-01 10:34 | 54.40581 | 18.35171 | 3288 ft | 223 kts | 293° |
| 2026-05-01 10:34 | 54.41185 | 18.32711 | 4135 ft | 224 kts | 295° |
| 2026-05-01 10:35 | 54.42406 | 18.27725 | 5881 ft | 229 kts | 296° |
| 2026-05-01 10:35 | 54.43026 | 18.25182 | 6675 ft | 233 kts | 295° |
| 2026-05-01 10:35 | 54.43273 | 18.22378 | 7392 ft | 248 kts | 265° |
| 2026-05-01 10:35 | 54.42572 | 18.19608 | 7984 ft | 269 kts | 232° |
| 2026-05-01 10:36 | 54.39091 | 18.16129 | 8980 ft | 304 kts | 202° |
| 2026-05-01 10:36 | 54.37162 | 18.14568 | 9738 ft | 309 kts | 212° |
| 2026-05-01 10:36 | 54.35465 | 18.12300 | 10472 ft | 312 kts | 229° |
| 2026-05-01 10:37 | 54.34181 | 18.09282 | 10808 ft | 326 kts | 246° |
| 2026-05-01 10:37 | 54.32586 | 18.01629 | 11635 ft | 350 kts | 255° |
| 2026-05-01 10:37 | 54.31784 | 17.97654 | 12292 ft | 355 kts | 254° |
| 2026-05-01 10:38 | 54.30957 | 17.93645 | 12969 ft | 359 kts | 254° |
| 2026-05-01 10:38 | 54.30110 | 17.89591 | 13629 ft | 363 kts | 254° |
| 2026-05-01 10:38 | 54.29252 | 17.85494 | 14264 ft | 367 kts | 254° |
| 2026-05-01 10:38 | 54.28409 | 17.81347 | 14810 ft | 370 kts | 253° |
| 2026-05-01 10:39 | 54.27652 | 17.77111 | 15354 ft | 373 kts | 258° |
| 2026-05-01 10:39 | 54.26956 | 17.72830 | 15935 ft | 375 kts | 259° |
| 2026-05-01 10:39 | 54.26277 | 17.68490 | 16501 ft | 379 kts | 259° |
| 2026-05-01 10:39 | 54.25595 | 17.64123 | 17067 ft | 382 kts | 259° |
| 2026-05-01 10:40 | 54.24904 | 17.59775 | 17631 ft | 386 kts | 259° |
| 2026-05-01 10:40 | 54.24180 | 17.55330 | 18187 ft | 390 kts | 258° |
| 2026-05-01 10:40 | 54.23434 | 17.50851 | 18696 ft | 395 kts | 258° |
| 2026-05-01 10:40 | 54.22662 | 17.46322 | 19169 ft | 400 kts | 255° |
| 2026-05-01 10:41 | 54.21563 | 17.41903 | 19663 ft | 407 kts | 246° |
| 2026-05-01 10:41 | 54.20282 | 17.37569 | 20176 ft | 410 kts | 246° |
| 2026-05-01 10:41 | 54.17706 | 17.28801 | 21166 ft | 416 kts | 246° |
| 2026-05-01 10:42 | 54.16411 | 17.24376 | 21638 ft | 419 kts | 246° |
| 2026-05-01 10:42 | 54.15120 | 17.19973 | 22086 ft | 422 kts | 246° |
| 2026-05-01 10:42 | 54.13798 | 17.15487 | 22540 ft | 424 kts | 246° |
| 2026-05-01 10:42 | 54.12465 | 17.10988 | 23055 ft | 426 kts | 246° |
| 2026-05-01 10:43 | 54.11125 | 17.06469 | 23535 ft | 428 kts | 246° |
| 2026-05-01 10:43 | 54.09850 | 17.01874 | 23982 ft | 429 kts | 252° |
| 2026-05-01 10:43 | 54.08949 | 16.97028 | 24360 ft | 429 kts | 258° |
| 2026-05-01 10:43 | 54.08144 | 16.92118 | 24750 ft | 431 kts | 258° |
| 2026-05-01 10:44 | 54.07330 | 16.87195 | 25150 ft | 434 kts | 257° |
| 2026-05-01 10:44 | 54.06502 | 16.82234 | 25512 ft | 436 kts | 257° |
| 2026-05-01 10:44 | 54.05667 | 16.77253 | 25895 ft | 439 kts | 257° |
| 2026-05-01 10:44 | 54.04825 | 16.72247 | 26274 ft | 441 kts | 257° |
| 2026-05-01 10:45 | 54.03978 | 16.67221 | 26651 ft | 443 kts | 257° |
| 2026-05-01 10:45 | 54.03411 | 16.63877 | 26899 ft | 445 kts | 257° |
| 2026-05-01 10:45 | 54.02551 | 16.58811 | 27266 ft | 447 kts | 257° |
| 2026-05-01 10:45 | 54.01685 | 16.53715 | 27628 ft | 449 kts | 257° |
| 2026-05-01 10:46 | 54.00535 | 16.46950 | 28147 ft | 450 kts | 256° |
| 2026-05-01 10:46 | 53.99946 | 16.43496 | 28413 ft | 451 kts | 256° |
| 2026-05-01 10:46 | 53.99069 | 16.38368 | 28802 ft | 453 kts | 256° |
| 2026-05-01 10:46 | 53.98194 | 16.33272 | 29159 ft | 455 kts | 256° |
| 2026-05-01 10:47 | 53.97301 | 16.28095 | 29511 ft | 457 kts | 256° |
| 2026-05-01 10:47 | 53.96400 | 16.22900 | 29875 ft | 459 kts | 256° |
| 2026-05-01 10:47 | 53.95497 | 16.17688 | 30224 ft | 462 kts | 256° |
| 2026-05-01 10:47 | 53.94425 | 16.12509 | 30565 ft | 466 kts | 248° |
| 2026-05-01 10:48 | 53.92900 | 16.07632 | 30851 ft | 470 kts | 239° |
| 2026-05-01 10:48 | 53.91093 | 16.02994 | 31207 ft | 471 kts | 238° |
| 2026-05-01 10:48 | 53.89284 | 15.98365 | 31636 ft | 469 kts | 238° |
| 2026-05-01 10:48 | 53.87486 | 15.93754 | 32071 ft | 468 kts | 238° |
| 2026-05-01 10:49 | 53.85698 | 15.89166 | 32532 ft | 466 kts | 238° |
| 2026-05-01 10:49 | 53.83913 | 15.84579 | 33020 ft | 463 kts | 238° |
| 2026-05-01 10:49 | 53.82165 | 15.80088 | 33529 ft | 460 kts | 238° |
| 2026-05-01 10:49 | 53.80405 | 15.75580 | 34004 ft | 458 kts | 238° |
| 2026-05-01 10:50 | 53.78647 | 15.71094 | 34447 ft | 456 kts | 238° |
| 2026-05-01 10:50 | 53.76894 | 15.66634 | 34819 ft | 455 kts | 238° |
| 2026-05-01 10:50 | 53.75142 | 15.62187 | 35179 ft | 454 kts | 238° |
| 2026-05-01 10:50 | 53.73397 | 15.57765 | 35525 ft | 452 kts | 238° |
| 2026-05-01 10:51 | 53.71650 | 15.53347 | 35856 ft | 451 kts | 238° |
| 2026-05-01 10:51 | 53.69904 | 15.48949 | 36174 ft | 450 kts | 238° |
| 2026-05-01 10:51 | 53.68163 | 15.44568 | 36372 ft | 451 kts | 238° |
| 2026-05-01 10:52 | 53.64688 | 15.35732 | 36407 ft | 451 kts | 239° |
| 2026-05-01 10:52 | 53.61313 | 15.26903 | 36410 ft | 451 kts | 239° |
| 2026-05-01 10:53 | 53.57911 | 15.18032 | 36407 ft | 451 kts | 239° |
| 2026-05-01 10:53 | 53.54482 | 15.09190 | 36407 ft | 451 kts | 238° |
| 2026-05-01 10:54 | 53.51044 | 15.00382 | 36415 ft | 451 kts | 238° |
| 2026-05-01 10:54 | 53.47597 | 14.91580 | 36409 ft | 451 kts | 238° |
| 2026-05-01 10:55 | 53.44172 | 14.82865 | 36412 ft | 451 kts | 238° |
| 2026-05-01 10:55 | 53.40705 | 14.74051 | 36419 ft | 451 kts | 238° |
| 2026-05-01 10:56 | 53.37248 | 14.65273 | 36418 ft | 451 kts | 238° |
| 2026-05-01 10:56 | 53.33785 | 14.56526 | 36421 ft | 451 kts | 238° |
| 2026-05-01 10:57 | 53.30301 | 14.47777 | 36414 ft | 451 kts | 238° |
| 2026-05-01 10:57 | 53.27069 | 14.38848 | 36428 ft | 448 kts | 248° |
| 2026-05-01 10:58 | 53.24723 | 14.29235 | 36433 ft | 447 kts | 250° |
| 2026-05-01 10:58 | 53.22385 | 14.19655 | 36431 ft | 447 kts | 250° |
| 2026-05-01 10:59 | 53.20042 | 14.10117 | 36423 ft | 447 kts | 249° |
| 2026-05-01 10:59 | 53.17671 | 14.00540 | 36422 ft | 447 kts | 249° |
| 2026-05-01 11:00 | 53.15287 | 13.90955 | 36438 ft | 447 kts | 249° |
| 2026-05-01 11:00 | 53.12921 | 13.81455 | 36436 ft | 446 kts | 249° |
| 2026-05-01 11:01 | 53.10543 | 13.71915 | 36441 ft | 446 kts | 249° |
| 2026-05-01 11:01 | 53.08156 | 13.62400 | 36439 ft | 445 kts | 249° |
| 2026-05-01 11:02 | 53.05752 | 13.52902 | 36436 ft | 445 kts | 249° |
| 2026-05-01 11:02 | 53.03364 | 13.43478 | 36434 ft | 445 kts | 249° |
| 2026-05-01 11:03 | 53.00954 | 13.33986 | 36432 ft | 445 kts | 249° |
| 2026-05-01 11:03 | 52.98538 | 13.24533 | 36423 ft | 445 kts | 248° |
| 2026-05-01 11:04 | 52.96113 | 13.15091 | 36429 ft | 444 kts | 248° |
| 2026-05-01 11:04 | 52.93723 | 13.05719 | 36434 ft | 444 kts | 249° |
| 2026-05-01 11:05 | 52.91434 | 12.96224 | 36432 ft | 444 kts | 250° |
| 2026-05-01 11:05 | 52.89170 | 12.86711 | 36432 ft | 444 kts | 250° |
| 2026-05-01 11:06 | 52.86880 | 12.77229 | 36434 ft | 444 kts | 249° |
| 2026-05-01 11:06 | 52.84556 | 12.67760 | 36428 ft | 443 kts | 249° |
| 2026-05-01 11:07 | 52.81057 | 12.53603 | 36437 ft | 443 kts | 249° |
| 2026-05-01 11:07 | 52.78730 | 12.44181 | 36441 ft | 443 kts | 249° |
| 2026-05-01 11:08 | 52.76395 | 12.34762 | 36446 ft | 443 kts | 249° |
| 2026-05-01 11:09 | 52.72887 | 12.20739 | 36442 ft | 442 kts | 249° |
| 2026-05-01 11:09 | 52.70526 | 12.11349 | 36436 ft | 442 kts | 248° |
| 2026-05-01 11:10 | 52.66975 | 11.97311 | 36446 ft | 442 kts | 248° |
| 2026-05-01 11:10 | 52.64610 | 11.87970 | 36442 ft | 442 kts | 248° |
| 2026-05-01 11:11 | 52.62232 | 11.78642 | 36440 ft | 441 kts | 248° |
| 2026-05-01 11:11 | 52.59848 | 11.69329 | 36439 ft | 441 kts | 248° |
| 2026-05-01 11:12 | 52.57475 | 11.60085 | 36441 ft | 441 kts | 248° |
| 2026-05-01 11:12 | 52.55079 | 11.50797 | 36440 ft | 441 kts | 248° |
| 2026-05-01 11:13 | 52.52675 | 11.41526 | 36442 ft | 441 kts | 247° |
| 2026-05-01 11:13 | 52.50264 | 11.32278 | 36442 ft | 440 kts | 247° |
| 2026-05-01 11:14 | 52.47849 | 11.23038 | 36441 ft | 440 kts | 247° |
| 2026-05-01 11:14 | 52.45429 | 11.13820 | 36438 ft | 440 kts | 247° |
| 2026-05-01 11:15 | 52.43001 | 11.04608 | 36432 ft | 440 kts | 247° |
| 2026-05-01 11:15 | 52.40588 | 10.95492 | 36428 ft | 440 kts | 247° |
| 2026-05-01 11:16 | 52.38138 | 10.86286 | 36425 ft | 440 kts | 246° |
| 2026-05-01 11:16 | 52.35839 | 10.77010 | 36421 ft | 439 kts | 253° |
| 2026-05-01 11:17 | 52.34026 | 10.67486 | 36423 ft | 439 kts | 253° |
| 2026-05-01 11:17 | 52.32209 | 10.58013 | 36422 ft | 439 kts | 253° |
| 2026-05-01 11:18 | 52.30396 | 10.48655 | 36115 ft | 426 kts | 252° |
| 2026-05-01 11:18 | 52.29496 | 10.44032 | 35535 ft | 427 kts | 253° |
| 2026-05-01 11:18 | 52.28594 | 10.39395 | 34967 ft | 428 kts | 252° |
| 2026-05-01 11:19 | 52.27693 | 10.34761 | 34411 ft | 429 kts | 253° |
| 2026-05-01 11:19 | 52.26788 | 10.30110 | 33776 ft | 430 kts | 252° |
| 2026-05-01 11:19 | 52.25881 | 10.25465 | 33155 ft | 430 kts | 252° |
| 2026-05-01 11:19 | 52.24968 | 10.20820 | 32548 ft | 430 kts | 252° |
| 2026-05-01 11:20 | 52.24049 | 10.16173 | 31951 ft | 430 kts | 252° |
| 2026-05-01 11:20 | 52.23128 | 10.11546 | 31369 ft | 429 kts | 252° |
| 2026-05-01 11:20 | 52.22211 | 10.06949 | 30821 ft | 428 kts | 252° |
| 2026-05-01 11:20 | 52.21294 | 10.02345 | 30268 ft | 426 kts | 251° |
| 2026-05-01 11:21 | 52.20383 | 9.97770 | 29545 ft | 421 kts | 251° |
| 2026-05-01 11:21 | 52.19482 | 9.93247 | 28561 ft | 418 kts | 252° |
| 2026-05-01 11:21 | 52.18590 | 9.88778 | 27685 ft | 412 kts | 251° |
| 2026-05-01 11:21 | 52.17708 | 9.84367 | 26858 ft | 406 kts | 251° |
| 2026-05-01 11:22 | 52.16848 | 9.80070 | 26524 ft | 390 kts | 251° |
| 2026-05-01 11:22 | 52.16014 | 9.75916 | 26371 ft | 384 kts | 251° |
| 2026-05-01 11:22 | 52.15195 | 9.71845 | 26404 ft | 381 kts | 251° |
| 2026-05-01 11:22 | 52.14365 | 9.67735 | 26408 ft | 381 kts | 251° |
| 2026-05-01 11:23 | 52.13545 | 9.63698 | 26401 ft | 382 kts | 251° |
| 2026-05-01 11:23 | 52.12706 | 9.59587 | 26396 ft | 382 kts | 251° |
| 2026-05-01 11:23 | 52.11864 | 9.55476 | 26408 ft | 383 kts | 251° |
| 2026-05-01 11:23 | 52.11022 | 9.51368 | 26407 ft | 382 kts | 251° |
| 2026-05-01 11:24 | 52.10183 | 9.47262 | 26397 ft | 383 kts | 251° |
| 2026-05-01 11:24 | 52.09342 | 9.43140 | 26395 ft | 384 kts | 251° |
| 2026-05-01 11:24 | 52.07658 | 9.34927 | 26396 ft | 382 kts | 251° |
| 2026-05-01 11:25 | 52.06809 | 9.30822 | 26396 ft | 383 kts | 251° |
| 2026-05-01 11:25 | 52.05205 | 9.22555 | 26403 ft | 383 kts | 258° |
| 2026-05-01 11:25 | 52.04696 | 9.18322 | 26405 ft | 381 kts | 259° |
| 2026-05-01 11:26 | 52.04187 | 9.14086 | 26392 ft | 382 kts | 259° |
| 2026-05-01 11:26 | 52.03147 | 9.05656 | 26399 ft | 384 kts | 258° |
| 2026-05-01 11:26 | 52.02608 | 9.01344 | 26390 ft | 395 kts | 258° |
| 2026-05-01 11:27 | 52.02058 | 8.96929 | 26387 ft | 401 kts | 258° |
| 2026-05-01 11:27 | 52.01502 | 8.92471 | 26385 ft | 404 kts | 258° |
| 2026-05-01 11:27 | 52.00943 | 8.88006 | 26377 ft | 404 kts | 258° |
| 2026-05-01 11:27 | 52.00381 | 8.83525 | 26382 ft | 403 kts | 258° |